createdAt,value
2018-04-16T00:00:29.771Z,10.50
2018-04-16T00:03:39.195Z,10.60
2018-04-16T00:06:49.486Z,10.50
2018-04-16T00:09:58.881Z,10.50
2018-04-16T00:13:08.347Z,10.30
2018-04-16T00:16:18.414Z,10.40
2018-04-16T00:19:28.275Z,10.30
2018-04-16T00:22:38.427Z,10.30
2018-04-16T00:25:49.506Z,10.30
2018-04-16T00:28:59.747Z,10.40
2018-04-16T00:32:15.247Z,10.30
2018-04-16T00:35:30.687Z,10.20
2018-04-16T00:38:45.563Z,10.10
2018-04-16T00:42:00.636Z,10.20
2018-04-16T00:45:20.040Z,10.30
2018-04-16T00:48:35.027Z,10.40
2018-04-16T00:51:50.651Z,10.30
2018-04-16T00:55:06.236Z,10.30
2018-04-16T01:01:56.873Z,10.30
2018-04-16T01:05:11.773Z,10.30
2018-04-16T01:08:27.167Z,10.30
2018-04-16T01:11:42.407Z,10.30
2018-04-16T01:14:57.655Z,10.30
2018-04-16T01:18:12.915Z,10.30
2018-04-16T01:21:29.267Z,10.30
2018-04-16T01:24:44.691Z,10.10
2018-04-16T01:28:00.053Z,10.30
2018-04-16T01:31:15.675Z,10.20
2018-04-16T01:38:06.324Z,9.90
2018-04-16T01:41:21.231Z,9.80
2018-04-16T01:44:36.800Z,9.80
2018-04-16T01:47:52.431Z,9.70
2018-04-16T01:51:07.371Z,9.70
2018-04-16T01:54:22.216Z,9.60
2018-04-16T01:57:37.943Z,9.50
2018-04-16T02:00:53.319Z,9.50
2018-04-16T02:04:08.626Z,9.60
2018-04-16T02:11:01.180Z,9.50
2018-04-16T02:17:56.715Z,9.30
2018-04-16T02:21:12.248Z,9.30
2018-04-16T02:24:27.922Z,9.40
2018-04-16T02:27:42.684Z,9.40
2018-04-16T02:30:58.465Z,9.50
2018-04-16T02:34:13.829Z,9.40
2018-04-16T02:37:29.182Z,9.30
2018-04-16T02:44:20.368Z,9.20
2018-04-16T02:47:36.245Z,9.30
2018-04-16T02:50:52.315Z,9.30
2018-04-16T02:54:07.631Z,9.30
2018-04-16T02:57:23.387Z,9.30
2018-04-16T03:00:39.135Z,9.20
2018-04-16T03:03:54.839Z,9.10
2018-04-16T03:07:09.737Z,8.90
2018-04-16T03:10:25.176Z,9.20
2018-04-16T03:13:40.103Z,8.70
2018-04-16T03:16:55.662Z,8.70
2018-04-16T03:20:11.276Z,8.90
2018-04-16T03:23:26.615Z,9.00
2018-04-16T03:26:42.009Z,8.90
2018-04-16T03:29:57.619Z,8.70
2018-04-16T03:33:12.557Z,8.50
2018-04-16T03:36:27.351Z,8.40
2018-04-16T03:39:42.943Z,8.40
2018-04-16T03:42:57.778Z,8.40
2018-04-16T03:46:12.923Z,8.40
2018-04-16T03:49:27.854Z,8.50
2018-04-16T03:52:43.515Z,8.30
2018-04-16T03:55:57.471Z,8.20
2018-04-16T03:59:07.100Z,8.20
2018-04-16T04:02:17.015Z,8.10
2018-04-16T04:05:26.478Z,7.90
2018-04-16T04:08:36.123Z,8.00
2018-04-16T04:11:45.852Z,8.00
2018-04-16T04:14:55.279Z,7.90
2018-04-16T04:18:04.610Z,8.00
2018-04-16T04:21:14.915Z,8.00
2018-04-16T04:28:24.911Z,8.10
2018-04-16T04:31:35.764Z,8.00
2018-04-16T04:34:46.536Z,8.00
2018-04-16T04:37:55.963Z,8.10
2018-04-16T04:41:05.711Z,8.00
2018-04-16T04:44:15.059Z,7.90
2018-04-16T04:47:24.727Z,8.00
2018-04-16T04:50:35.495Z,8.20
2018-04-16T04:53:45.512Z,8.50
2018-04-16T04:56:55.272Z,8.50
2018-04-16T05:00:05.692Z,8.30
2018-04-16T05:03:16.025Z,8.10
2018-04-16T05:06:25.547Z,8.20
2018-04-16T05:09:35.623Z,8.20
2018-04-16T05:12:45.984Z,8.20
2018-04-16T05:15:56.248Z,8.20
2018-04-16T05:19:06.312Z,8.30
2018-04-16T05:22:17.580Z,8.10
2018-04-16T05:25:27.011Z,8.40
2018-04-16T05:28:36.880Z,8.50
2018-04-16T05:31:46.303Z,8.60
2018-04-16T05:34:55.767Z,8.40
2018-04-16T05:38:05.673Z,8.50
2018-04-16T05:41:15.932Z,8.60
2018-04-16T05:44:26.559Z,9.00
2018-04-16T05:47:36.367Z,9.30
2018-04-16T05:50:46.260Z,9.20
2018-04-16T05:53:56.885Z,10.10
2018-04-16T05:57:06.875Z,10.40
2018-04-16T06:00:16.993Z,10.70
2018-04-16T06:03:26.698Z,11.00
2018-04-16T06:06:36.595Z,11.20
2018-04-16T06:09:46.943Z,11.40
2018-04-16T06:12:56.816Z,11.90
2018-04-16T06:16:07.063Z,12.00
2018-04-16T06:19:17.142Z,12.30
2018-04-16T06:22:26.560Z,12.80
2018-04-16T06:25:36.427Z,12.80
2018-04-16T06:28:45.726Z,13.10
2018-04-16T06:31:55.110Z,13.10
2018-04-16T06:35:05.362Z,13.20
2018-04-16T06:38:15.650Z,13.30
2018-04-16T06:41:25.330Z,13.60
2018-04-16T06:44:34.803Z,13.60
2018-04-16T06:47:44.507Z,14.00
2018-04-16T06:50:53.899Z,14.40
2018-04-16T06:54:03.392Z,14.90
2018-04-16T06:57:12.817Z,14.80
2018-04-16T07:00:22.905Z,14.70
2018-04-16T07:03:32.220Z,14.60
2018-04-16T07:06:42.442Z,14.80
2018-04-16T07:09:51.810Z,14.80
2018-04-16T07:13:01.429Z,15.10
2018-04-16T07:16:12.055Z,15.30
2018-04-16T07:19:21.780Z,15.10
2018-04-16T07:22:31.214Z,15.00
2018-04-16T07:25:40.920Z,15.30
2018-04-16T07:28:50.755Z,15.30
2018-04-16T07:32:00.899Z,15.30
2018-04-16T07:35:10.227Z,15.10
2018-04-16T07:38:20.087Z,15.00
2018-04-16T07:41:29.792Z,14.60
2018-04-16T07:44:39.991Z,14.50
2018-04-16T07:47:49.352Z,14.50
2018-04-16T07:50:59.087Z,14.60
2018-04-16T07:54:08.408Z,15.10
2018-04-16T07:57:18.523Z,15.00
2018-04-16T08:00:27.804Z,15.20
2018-04-16T08:03:38.050Z,14.90
2018-04-16T08:06:47.520Z,14.90
2018-04-16T08:09:57.765Z,15.10
2018-04-16T08:13:07.188Z,15.00
2018-04-16T08:16:18.827Z,15.00
2018-04-16T08:19:28.130Z,15.00
2018-04-16T08:22:37.643Z,15.10
2018-04-16T08:25:48.048Z,15.30
2018-04-16T08:28:58.209Z,15.50
2018-04-16T08:32:08.265Z,15.50
2018-04-16T08:35:18.008Z,15.90
2018-04-16T08:38:27.507Z,16.40
2018-04-16T08:41:37.623Z,16.70
2018-04-16T08:44:47.763Z,17.00
2018-04-16T08:47:57.176Z,16.50
2018-04-16T08:51:06.986Z,16.50
2018-04-16T08:54:17.223Z,16.80
2018-04-16T08:57:27.494Z,16.80
2018-04-16T09:00:37.015Z,17.20
2018-04-16T09:03:47.155Z,17.60
2018-04-16T09:06:57.303Z,18.00
2018-04-16T09:10:06.625Z,17.90
2018-04-16T09:13:16.065Z,17.70
2018-04-16T09:16:26.238Z,17.80
2018-04-16T09:19:35.565Z,18.10
2018-04-16T09:22:44.908Z,17.90
2018-04-16T09:25:54.406Z,17.90
2018-04-16T09:29:03.807Z,18.40
2018-04-16T09:32:14.099Z,18.50
2018-04-16T09:35:23.492Z,18.30
2018-04-16T09:38:32.819Z,17.70
2018-04-16T09:41:43.091Z,17.50
2018-04-16T09:44:52.883Z,17.40
2018-04-16T09:48:02.183Z,17.20
2018-04-16T09:51:12.074Z,17.40
2018-04-16T09:54:21.472Z,17.40
2018-04-16T09:57:31.168Z,18.10
2018-04-16T10:00:45.991Z,18.50
2018-04-16T10:03:55.363Z,18.20
2018-04-16T10:07:05.295Z,18.00
2018-04-16T10:10:14.784Z,18.10
2018-04-16T10:13:24.827Z,17.80
2018-04-16T10:16:34.624Z,17.60
2018-04-16T10:19:44.705Z,17.90
2018-04-16T10:22:54.100Z,19.00
2018-04-16T10:26:03.432Z,19.30
2018-04-16T10:29:13.493Z,19.40
2018-04-16T10:32:23.682Z,19.00
2018-04-16T10:35:33.692Z,18.50
2018-04-16T10:38:43.952Z,19.00
2018-04-16T10:41:54.162Z,19.20
2018-04-16T10:45:03.503Z,18.50
2018-04-16T10:48:13.180Z,19.60
2018-04-16T10:51:22.488Z,19.80
2018-04-16T10:54:31.844Z,19.70
2018-04-16T10:57:41.556Z,20.50
2018-04-16T11:00:51.048Z,19.90
2018-04-16T11:04:00.375Z,20.00
2018-04-16T11:07:09.709Z,19.50
2018-04-16T11:10:19.031Z,18.90
2018-04-16T11:13:28.537Z,18.60
2018-04-16T11:16:38.187Z,18.30
2018-04-16T11:19:47.483Z,18.40
2018-04-16T11:22:57.192Z,19.50
2018-04-16T11:26:07.287Z,19.50
2018-04-16T11:29:16.632Z,18.90
2018-04-16T11:32:26.884Z,19.30
2018-04-16T11:35:36.992Z,19.50
2018-04-16T11:38:47.346Z,19.40
2018-04-16T11:41:57.515Z,19.10
2018-04-16T11:45:06.831Z,19.20
2018-04-16T11:48:16.708Z,19.40
2018-04-16T11:51:26.476Z,20.40
2018-04-16T11:54:35.774Z,20.50
2018-04-16T11:57:45.218Z,20.60
2018-04-16T12:00:54.515Z,19.90
2018-04-16T12:04:04.583Z,20.00
2018-04-16T12:07:15.124Z,21.30
2018-04-16T12:10:24.575Z,20.70
2018-04-16T12:13:34.167Z,20.60
2018-04-16T12:16:44.395Z,21.40
2018-04-16T12:19:53.706Z,20.80
2018-04-16T12:23:03.895Z,20.50
2018-04-16T12:26:13.320Z,20.80
2018-04-16T12:29:23.169Z,20.40
2018-04-16T12:32:32.607Z,19.60
2018-04-16T12:35:41.912Z,19.30
2018-04-16T12:38:51.206Z,20.20
2018-04-16T12:42:00.964Z,20.20
2018-04-16T12:45:10.344Z,20.10
2018-04-16T12:48:20.433Z,18.90
2018-04-16T12:51:30.624Z,19.00
2018-04-16T12:54:39.928Z,19.90
2018-04-16T12:57:49.373Z,20.00
2018-04-16T13:00:59.604Z,19.90
2018-04-16T13:04:09.083Z,20.30
2018-04-16T13:07:18.519Z,20.20
2018-04-16T13:10:28.382Z,19.70
2018-04-16T13:13:38.512Z,19.50
2018-04-16T13:16:47.855Z,19.60
2018-04-16T13:19:58.121Z,20.50
2018-04-16T13:23:07.497Z,21.60
2018-04-16T13:26:17.564Z,19.80
2018-04-16T13:29:26.940Z,20.60
2018-04-16T13:32:36.269Z,20.60
2018-04-16T13:35:45.611Z,19.90
2018-04-16T13:38:55.736Z,19.50
2018-04-16T13:42:05.171Z,19.20
2018-04-16T13:45:15.947Z,19.40
2018-04-16T13:48:25.895Z,19.70
2018-04-16T13:51:35.613Z,21.10
2018-04-16T13:54:45.839Z,21.80
2018-04-16T13:57:55.542Z,21.90
2018-04-16T14:01:04.869Z,22.00
2018-04-16T14:04:15.075Z,21.70
2018-04-16T14:07:29.663Z,20.30
2018-04-16T14:10:39.046Z,19.30
2018-04-16T14:13:49.231Z,19.10
2018-04-16T14:16:59.504Z,19.10
2018-04-16T14:20:09.884Z,20.10
2018-04-16T14:23:19.205Z,20.20
2018-04-16T14:26:29.024Z,18.80
2018-04-16T14:29:38.403Z,19.60
2018-04-16T14:32:47.787Z,19.70
2018-04-16T14:35:57.168Z,21.70
2018-04-16T14:39:07.296Z,22.20
2018-04-16T14:42:16.605Z,21.20
2018-04-16T14:45:25.920Z,19.70
2018-04-16T14:48:36.026Z,21.20
2018-04-16T14:51:45.380Z,21.80
2018-04-16T14:54:54.779Z,21.70
2018-04-16T14:58:04.168Z,22.90
2018-04-16T15:01:13.606Z,22.60
2018-04-16T15:04:23.012Z,20.70
2018-04-16T15:07:33.220Z,20.40
2018-04-16T15:10:43.157Z,20.10
2018-04-16T15:13:52.603Z,20.30
2018-04-16T15:17:02.796Z,20.40
2018-04-16T15:20:12.144Z,20.70
2018-04-16T15:23:22.239Z,20.50
2018-04-16T15:26:32.024Z,20.00
2018-04-16T15:29:42.104Z,19.90
2018-04-16T15:32:51.865Z,19.30
2018-04-16T15:36:01.947Z,19.40
2018-04-16T15:39:12.060Z,19.20
2018-04-16T15:42:21.932Z,19.80
2018-04-16T15:45:32.096Z,19.20
2018-04-16T15:48:41.832Z,19.00
2018-04-16T15:51:51.878Z,20.70
2018-04-16T15:55:02.157Z,20.40
2018-04-16T15:58:12.249Z,21.30
2018-04-16T16:01:22.467Z,21.50
2018-04-16T16:04:32.661Z,22.10
2018-04-16T16:07:42.783Z,22.40
2018-04-16T16:10:52.337Z,22.10
2018-04-16T16:14:01.704Z,22.10
2018-04-16T16:17:11.808Z,22.10
2018-04-16T16:20:21.264Z,21.40
2018-04-16T16:23:30.627Z,21.10
2018-04-16T16:26:40.722Z,20.30
2018-04-16T16:29:50.062Z,19.90
2018-04-16T16:32:59.384Z,21.30
2018-04-16T16:36:08.832Z,21.50
2018-04-16T16:39:18.296Z,21.70
2018-04-16T16:42:28.123Z,21.50
2018-04-16T16:45:38.422Z,21.20
2018-04-16T16:48:48.599Z,20.80
2018-04-16T16:51:58.021Z,21.20
2018-04-16T16:55:08.264Z,21.40
2018-04-16T16:58:17.860Z,20.70
2018-04-16T17:01:27.177Z,20.70
2018-04-16T17:04:36.600Z,21.00
2018-04-16T17:07:46.389Z,20.40
2018-04-16T17:10:56.622Z,20.70
2018-04-16T17:14:06.256Z,20.60
2018-04-16T17:17:15.591Z,20.40
2018-04-16T17:20:26.424Z,20.40
2018-04-16T17:23:35.776Z,20.10
2018-04-16T17:26:45.303Z,19.70
2018-04-16T17:29:55.592Z,19.90
2018-04-16T17:33:05.874Z,19.30
2018-04-16T17:36:16.179Z,18.90
2018-04-16T17:39:25.929Z,18.60
2018-04-16T17:42:35.404Z,18.50
2018-04-16T17:45:45.476Z,18.60
2018-04-16T17:48:54.803Z,18.60
2018-04-16T17:52:04.207Z,18.00
2018-04-16T17:55:13.597Z,17.60
2018-04-16T17:58:23.130Z,17.30
2018-04-16T18:01:33.059Z,16.80
2018-04-16T18:04:43.387Z,16.40
2018-04-16T18:07:53.233Z,16.20
2018-04-16T18:11:03.097Z,16.00
2018-04-16T18:14:13.080Z,15.80
2018-04-16T18:17:25.026Z,15.70
2018-04-16T18:20:34.440Z,15.20
2018-04-16T18:23:45.174Z,15.30
2018-04-16T18:26:55.415Z,15.30
2018-04-16T18:30:05.238Z,15.10
2018-04-16T18:33:15.036Z,15.10
2018-04-16T18:36:25.091Z,14.80
2018-04-16T18:39:34.939Z,14.70
2018-04-16T18:42:44.927Z,14.50
2018-04-16T18:45:54.488Z,14.30
2018-04-16T18:49:04.442Z,14.30
2018-04-16T18:52:14.707Z,14.10
2018-04-16T18:55:24.067Z,14.20
2018-04-16T18:58:35.200Z,13.90
2018-04-16T19:01:46.151Z,13.80
2018-04-16T19:04:55.568Z,13.70
2018-04-16T19:08:05.061Z,13.50
2018-04-16T19:11:14.512Z,13.40
2018-04-16T19:14:24.736Z,13.60
2018-04-16T19:17:39.792Z,13.40
2018-04-16T19:20:54.737Z,13.60
2018-04-16T19:24:05.332Z,13.50
2018-04-16T19:27:20.360Z,13.60
2018-04-16T19:30:29.856Z,13.00
2018-04-16T19:33:44.800Z,13.10
2018-04-16T19:36:54.567Z,13.00
2018-04-16T19:40:04.041Z,12.60
2018-04-16T19:43:13.867Z,12.60
2018-04-16T19:46:23.353Z,12.80
2018-04-16T19:49:39.083Z,12.70
2018-04-16T19:52:49.335Z,12.70
2018-04-16T19:56:04.989Z,12.70
2018-04-16T19:59:14.366Z,12.80
2018-04-16T20:02:29.265Z,12.50
2018-04-16T20:05:39.449Z,12.60
2018-04-16T20:08:48.895Z,12.70
2018-04-16T20:11:58.351Z,12.10
2018-04-16T20:15:07.689Z,12.60
2018-04-16T20:18:17.536Z,12.50
2018-04-16T20:21:27.817Z,12.50
2018-04-16T20:24:37.632Z,12.50
2018-04-16T20:27:47.976Z,12.50
2018-04-16T20:30:58.193Z,12.50
2018-04-16T20:34:08.280Z,12.40
2018-04-16T20:37:18.182Z,12.20
2018-04-16T20:40:28.388Z,12.30
2018-04-16T20:43:38.616Z,12.20
2018-04-16T20:46:48.429Z,12.10
2018-04-16T20:49:58.312Z,12.20
2018-04-16T20:53:07.602Z,11.80
2018-04-16T20:56:16.949Z,11.90
2018-04-16T20:59:26.689Z,11.50
2018-04-16T21:02:36.053Z,11.40
2018-04-16T21:05:45.556Z,11.60
2018-04-16T21:08:55.204Z,11.50
2018-04-16T21:12:04.568Z,11.40
2018-04-16T21:15:14.504Z,11.30
2018-04-16T21:18:24.414Z,11.40
2018-04-16T21:21:34.504Z,11.20
2018-04-16T21:24:44.764Z,11.10
2018-04-16T21:27:54.344Z,11.00
2018-04-16T21:31:03.799Z,10.80
2018-04-16T21:34:14.871Z,10.80
2018-04-16T21:37:25.565Z,10.90
2018-04-16T21:40:35.411Z,10.70
2018-04-16T21:43:45.604Z,10.70
2018-04-16T21:46:55.528Z,10.40
2018-04-16T21:50:05.393Z,10.10
2018-04-16T21:53:14.692Z,9.80
2018-04-16T21:56:24.613Z,9.60
2018-04-16T21:59:34.468Z,9.40
2018-04-16T22:02:44.545Z,9.20
2018-04-16T22:05:54.828Z,9.10
2018-04-16T22:09:04.105Z,9.10
2018-04-16T22:12:14.300Z,8.90
2018-04-16T22:15:24.536Z,8.90
2018-04-16T22:18:34.749Z,8.80
2018-04-16T22:21:44.837Z,8.60
2018-04-16T22:24:54.681Z,8.70
2018-04-16T22:28:04.749Z,8.60
2018-04-16T22:31:15.411Z,8.60
2018-04-16T22:34:25.335Z,8.50
2018-04-16T22:37:36.548Z,8.60
2018-04-16T22:40:46.620Z,8.70
2018-04-16T22:43:56.755Z,8.80
2018-04-16T22:47:06.196Z,9.10
2018-04-16T22:50:15.900Z,9.10
2018-04-16T22:53:25.279Z,9.00
2018-04-16T22:56:34.684Z,9.00
2018-04-16T22:59:44.089Z,8.90
2018-04-16T23:02:54.191Z,8.80
2018-04-16T23:06:03.595Z,8.90
2018-04-16T23:09:13.815Z,8.80
2018-04-16T23:12:23.412Z,8.70
2018-04-16T23:15:33.544Z,8.50
2018-04-16T23:18:43.779Z,8.30
2018-04-16T23:21:54.195Z,8.10
2018-04-16T23:25:04.552Z,8.00
2018-04-16T23:28:14.227Z,7.80
2018-04-16T23:31:24.021Z,7.70
2018-04-16T23:34:33.487Z,7.60
2018-04-16T23:37:43.820Z,7.60
2018-04-16T23:40:53.814Z,7.50
2018-04-16T23:44:03.908Z,7.50
2018-04-16T23:47:15.457Z,7.60
2018-04-16T23:50:25.595Z,7.50
2018-04-16T23:53:35.475Z,7.60
2018-04-16T23:56:44.947Z,7.80
2018-04-16T23:59:55.361Z,7.80
